sensor_id;sensor_type;location;lat;lon;timestamp;temperature;humidity
35240;DHT22;21376;50.954;4.716;2022-12-18T00:02:25;-4.70;99.90
35240;DHT22;21376;50.954;4.716;2022-12-18T00:04:55;-4.70;99.90
35240;DHT22;21376;50.954;4.716;2022-12-18T00:07:26;-4.50;99.90
35240;DHT22;21376;50.954;4.716;2022-12-18T00:09:53;-4.50;99.90
35240;DHT22;21376;50.954;4.716;2022-12-18T00:12:30;-4.60;99.90
35240;DHT22;21376;50.954;4.716;2022-12-18T00:15:02;-4.70;99.90
35240;DHT22;21376;50.954;4.716;2022-12-18T00:17:29;-4.60;99.90
35240;DHT22;21376;50.954;4.716;2022-12-18T00:19:55;-4.60;99.90
35240;DHT22;21376;50.954;4.716;2022-12-18T00:22:22;-4.60;99.90
35240;DHT22;21376;50.954;4.716;2022-12-18T00:24:50;-4.70;99.90
35240;DHT22;21376;50.954;4.716;2022-12-18T00:27:18;-4.80;99.90
35240;DHT22;21376;50.954;4.716;2022-12-18T00:29:44;-4.80;99.90
35240;DHT22;21376;50.954;4.716;2022-12-18T00:32:13;-4.90;99.90
35240;DHT22;21376;50.954;4.716;2022-12-18T00:37:07;-4.90;99.90
35240;DHT22;21376;50.954;4.716;2022-12-18T00:39:36;-4.90;99.90
35240;DHT22;21376;50.954;4.716;2022-12-18T00:42:05;-4.90;99.90
35240;DHT22;21376;50.954;4.716;2022-12-18T00:47:21;-4.70;99.90
35240;DHT22;21376;50.954;4.716;2022-12-18T00:49:48;-4.60;99.90
35240;DHT22;21376;50.954;4.716;2022-12-18T00:52:14;-4.60;99.90
35240;DHT22;21376;50.954;4.716;2022-12-18T00:54:43;-4.50;99.90
35240;DHT22;21376;50.954;4.716;2022-12-18T01:02:10;-4.70;99.90
35240;DHT22;21376;50.954;4.716;2022-12-18T01:04:37;-4.70;99.90
35240;DHT22;21376;50.954;4.716;2022-12-18T01:07:06;-4.60;99.90
35240;DHT22;21376;50.954;4.716;2022-12-18T01:12:06;-4.90;99.90
35240;DHT22;21376;50.954;4.716;2022-12-18T01:14:32;-4.80;99.90
35240;DHT22;21376;50.954;4.716;2022-12-18T01:16:58;-4.70;99.90
35240;DHT22;21376;50.954;4.716;2022-12-18T01:19:23;-4.80;99.90
35240;DHT22;21376;50.954;4.716;2022-12-18T01:21:49;-4.90;99.90
35240;DHT22;21376;50.954;4.716;2022-12-18T01:24:24;-5.00;99.90
35240;DHT22;21376;50.954;4.716;2022-12-18T01:26:49;-5.10;99.90
35240;DHT22;21376;50.954;4.716;2022-12-18T01:29:15;-5.10;99.90
35240;DHT22;21376;50.954;4.716;2022-12-18T01:31:41;-5.10;99.90
35240;DHT22;21376;50.954;4.716;2022-12-18T01:34:06;-5.30;99.90
35240;DHT22;21376;50.954;4.716;2022-12-18T01:36:36;-5.20;99.90
35240;DHT22;21376;50.954;4.716;2022-12-18T01:41:34;-5.00;99.90
35240;DHT22;21376;50.954;4.716;2022-12-18T01:49:33;-5.00;99.90
35240;DHT22;21376;50.954;4.716;2022-12-18T01:51:59;-5.00;99.90
35240;DHT22;21376;50.954;4.716;2022-12-18T01:59:22;-5.20;99.90
35240;DHT22;21376;50.954;4.716;2022-12-18T02:01:50;-5.40;99.90
35240;DHT22;21376;50.954;4.716;2022-12-18T02:04:30;-5.40;99.90
35240;DHT22;21376;50.954;4.716;2022-12-18T02:07:17;-5.40;99.90
35240;DHT22;21376;50.954;4.716;2022-12-18T02:12:27;-5.60;99.90
35240;DHT22;21376;50.954;4.716;2022-12-18T02:20:12;-6.20;99.90
35240;DHT22;21376;50.954;4.716;2022-12-18T02:25:32;-6.40;99.90
35240;DHT22;21376;50.954;4.716;2022-12-18T02:28:05;-6.40;99.90
35240;DHT22;21376;50.954;4.716;2022-12-18T02:30:37;-6.40;99.90
35240;DHT22;21376;50.954;4.716;2022-12-18T02:33:07;-6.40;99.90
35240;DHT22;21376;50.954;4.716;2022-12-18T02:35:34;-6.40;99.90
35240;DHT22;21376;50.954;4.716;2022-12-18T02:38:03;-6.30;99.90
35240;DHT22;21376;50.954;4.716;2022-12-18T02:40:35;-6.40;99.90
35240;DHT22;21376;50.954;4.716;2022-12-18T02:43:13;-6.40;99.90
35240;DHT22;21376;50.954;4.716;2022-12-18T02:45:47;-6.50;99.90
35240;DHT22;21376;50.954;4.716;2022-12-18T02:50:44;-6.70;99.90
35240;DHT22;21376;50.954;4.716;2022-12-18T02:53:24;-6.90;99.90
35240;DHT22;21376;50.954;4.716;2022-12-18T03:04:01;-7.00;99.90
35240;DHT22;21376;50.954;4.716;2022-12-18T03:06:46;-7.20;99.90
35240;DHT22;21376;50.954;4.716;2022-12-18T03:09:21;-7.10;99.90
35240;DHT22;21376;50.954;4.716;2022-12-18T03:11:49;-7.20;99.90
35240;DHT22;21376;50.954;4.716;2022-12-18T03:14:52;-7.10;99.90
35240;DHT22;21376;50.954;4.716;2022-12-18T03:17:20;-7.10;99.90
35240;DHT22;21376;50.954;4.716;2022-12-18T03:19:47;-7.20;99.90
35240;DHT22;21376;50.954;4.716;2022-12-18T03:22:17;-7.20;99.90
35240;DHT22;21376;50.954;4.716;2022-12-18T03:35:46;-7.10;99.90
35240;DHT22;21376;50.954;4.716;2022-12-18T03:38:15;-7.20;99.90
35240;DHT22;21376;50.954;4.716;2022-12-18T03:43:48;-7.20;99.90
35240;DHT22;21376;50.954;4.716;2022-12-18T03:46:30;-7.30;99.90
35240;DHT22;21376;50.954;4.716;2022-12-18T03:52:09;-7.50;99.90
35240;DHT22;21376;50.954;4.716;2022-12-18T03:57:24;-7.40;99.90
35240;DHT22;21376;50.954;4.716;2022-12-18T03:59:58;-7.50;99.90
35240;DHT22;21376;50.954;4.716;2022-12-18T04:02:28;-7.60;99.90
35240;DHT22;21376;50.954;4.716;2022-12-18T04:04:58;-7.60;99.90
35240;DHT22;21376;50.954;4.716;2022-12-18T04:09:56;-7.60;99.90
35240;DHT22;21376;50.954;4.716;2022-12-18T04:17:48;-7.60;99.90
35240;DHT22;21376;50.954;4.716;2022-12-18T04:20:16;-7.60;99.90
35240;DHT22;21376;50.954;4.716;2022-12-18T04:25:34;-7.50;99.90
35240;DHT22;21376;50.954;4.716;2022-12-18T04:30:31;-7.60;99.90
35240;DHT22;21376;50.954;4.716;2022-12-18T04:35:29;-8.00;99.90
35240;DHT22;21376;50.954;4.716;2022-12-18T04:38:09;-8.00;99.90
35240;DHT22;21376;50.954;4.716;2022-12-18T04:40:36;-7.80;99.90
35240;DHT22;21376;50.954;4.716;2022-12-18T04:43:05;-7.70;99.90
35240;DHT22;21376;50.954;4.716;2022-12-18T04:45:33;-7.70;99.90
35240;DHT22;21376;50.954;4.716;2022-12-18T04:48:02;-7.70;99.90
35240;DHT22;21376;50.954;4.716;2022-12-18T04:52:58;-7.60;99.90
35240;DHT22;21376;50.954;4.716;2022-12-18T04:55:27;-7.60;99.90
35240;DHT22;21376;50.954;4.716;2022-12-18T05:00:25;-7.70;99.90
35240;DHT22;21376;50.954;4.716;2022-12-18T05:02:54;-7.70;99.90
35240;DHT22;21376;50.954;4.716;2022-12-18T05:05:20;-7.90;99.90
35240;DHT22;21376;50.954;4.716;2022-12-18T05:10:21;-7.90;99.90
35240;DHT22;21376;50.954;4.716;2022-12-18T05:12:46;-7.80;99.90
35240;DHT22;21376;50.954;4.716;2022-12-18T05:18:01;-8.00;99.90
35240;DHT22;21376;50.954;4.716;2022-12-18T05:20:30;-7.90;99.90
35240;DHT22;21376;50.954;4.716;2022-12-18T05:23:01;-7.90;99.90
35240;DHT22;21376;50.954;4.716;2022-12-18T05:25:30;-8.00;99.90
35240;DHT22;21376;50.954;4.716;2022-12-18T05:30:37;-8.10;99.90
35240;DHT22;21376;50.954;4.716;2022-12-18T05:33:10;-8.10;99.90
35240;DHT22;21376;50.954;4.716;2022-12-18T05:35:39;-8.10;99.90
35240;DHT22;21376;50.954;4.716;2022-12-18T05:38:05;-8.00;99.90
35240;DHT22;21376;50.954;4.716;2022-12-18T05:40:31;-8.00;99.90
35240;DHT22;21376;50.954;4.716;2022-12-18T05:45:57;-8.00;99.90
35240;DHT22;21376;50.954;4.716;2022-12-18T05:48:26;-7.90;99.90
35240;DHT22;21376;50.954;4.716;2022-12-18T05:50:53;-7.80;99.90
35240;DHT22;21376;50.954;4.716;2022-12-18T05:53:24;-8.00;99.90
35240;DHT22;21376;50.954;4.716;2022-12-18T05:55:52;-8.00;99.90
35240;DHT22;21376;50.954;4.716;2022-12-18T05:58:21;-7.70;99.90
35240;DHT22;21376;50.954;4.716;2022-12-18T06:00:48;-7.40;99.90
35240;DHT22;21376;50.954;4.716;2022-12-18T06:03:16;-7.30;99.90
35240;DHT22;21376;50.954;4.716;2022-12-18T06:05:49;-7.40;99.90
35240;DHT22;21376;50.954;4.716;2022-12-18T06:08:15;-7.50;99.90
35240;DHT22;21376;50.954;4.716;2022-12-18T06:10:49;-7.50;99.90
35240;DHT22;21376;50.954;4.716;2022-12-18T06:13:19;-7.70;99.90
35240;DHT22;21376;50.954;4.716;2022-12-18T06:15:49;-7.70;99.90
35240;DHT22;21376;50.954;4.716;2022-12-18T06:18:16;-7.80;99.90
35240;DHT22;21376;50.954;4.716;2022-12-18T06:26:11;-7.80;99.90
35240;DHT22;21376;50.954;4.716;2022-12-18T06:28:37;-7.60;99.90
35240;DHT22;21376;50.954;4.716;2022-12-18T06:31:06;-7.50;99.90
35240;DHT22;21376;50.954;4.716;2022-12-18T06:36:55;-7.10;99.90
35240;DHT22;21376;50.954;4.716;2022-12-18T06:42:26;-6.80;99.90
35240;DHT22;21376;50.954;4.716;2022-12-18T06:45:06;-6.80;99.90
35240;DHT22;21376;50.954;4.716;2022-12-18T06:50:35;-7.10;99.90
35240;DHT22;21376;50.954;4.716;2022-12-18T06:53:15;-7.30;99.90
35240;DHT22;21376;50.954;4.716;2022-12-18T06:55:42;-7.40;99.90
35240;DHT22;21376;50.954;4.716;2022-12-18T07:03:54;-7.40;99.90
35240;DHT22;21376;50.954;4.716;2022-12-18T07:06:28;-7.30;99.90
35240;DHT22;21376;50.954;4.716;2022-12-18T07:09:07;-7.30;99.90
35240;DHT22;21376;50.954;4.716;2022-12-18T07:20:28;-6.80;99.90
35240;DHT22;21376;50.954;4.716;2022-12-18T07:23:09;-6.90;99.90
35240;DHT22;21376;50.954;4.716;2022-12-18T07:25:51;-6.90;99.90
35240;DHT22;21376;50.954;4.716;2022-12-18T07:28:25;-6.60;99.90
35240;DHT22;21376;50.954;4.716;2022-12-18T07:42:49;-6.00;99.90
35240;DHT22;21376;50.954;4.716;2022-12-18T07:45:50;-6.10;99.90
35240;DHT22;21376;50.954;4.716;2022-12-18T07:48:28;-6.10;99.90
35240;DHT22;21376;50.954;4.716;2022-12-18T07:51:05;-6.00;99.90
35240;DHT22;21376;50.954;4.716;2022-12-18T07:53:36;-5.80;99.90
35240;DHT22;21376;50.954;4.716;2022-12-18T08:37:20;-5.00;99.90
35240;DHT22;21376;50.954;4.716;2022-12-18T08:42:50;-5.00;99.90
35240;DHT22;21376;50.954;4.716;2022-12-18T08:48:03;-4.90;99.90
35240;DHT22;21376;50.954;4.716;2022-12-18T08:52:58;-4.90;99.90
35240;DHT22;21376;50.954;4.716;2022-12-18T08:55:24;-4.80;99.90
35240;DHT22;21376;50.954;4.716;2022-12-18T08:57:50;-4.80;99.90
35240;DHT22;21376;50.954;4.716;2022-12-18T09:00:22;-4.60;99.90
35240;DHT22;21376;50.954;4.716;2022-12-18T09:02:47;-4.30;99.90
35240;DHT22;21376;50.954;4.716;2022-12-18T09:05:13;-3.90;99.90
35240;DHT22;21376;50.954;4.716;2022-12-18T09:07:39;-3.70;99.90
35240;DHT22;21376;50.954;4.716;2022-12-18T09:10:11;-3.60;99.90
35240;DHT22;21376;50.954;4.716;2022-12-18T09:12:36;-3.30;99.90
35240;DHT22;21376;50.954;4.716;2022-12-18T09:15:05;-2.80;99.90
35240;DHT22;21376;50.954;4.716;2022-12-18T09:22:52;-2.60;99.90
35240;DHT22;21376;50.954;4.716;2022-12-18T09:28:24;-2.70;99.90
35240;DHT22;21376;50.954;4.716;2022-12-18T09:30:49;-2.80;99.90
35240;DHT22;21376;50.954;4.716;2022-12-18T09:33:20;-2.50;99.90
35240;DHT22;21376;50.954;4.716;2022-12-18T09:38:35;-1.90;99.90
35240;DHT22;21376;50.954;4.716;2022-12-18T09:46:19;-1.40;99.90
35240;DHT22;21376;50.954;4.716;2022-12-18T09:49:05;-1.30;99.90
35240;DHT22;21376;50.954;4.716;2022-12-18T09:51:39;-1.20;99.90
35240;DHT22;21376;50.954;4.716;2022-12-18T09:54:23;-1.30;99.90
35240;DHT22;21376;50.954;4.716;2022-12-18T09:56:53;-1.40;99.90
35240;DHT22;21376;50.954;4.716;2022-12-18T10:10:51;-1.30;99.90
35240;DHT22;21376;50.954;4.716;2022-12-18T10:16:11;-0.80;99.90
35240;DHT22;21376;50.954;4.716;2022-12-18T10:21:10;-0.70;99.90
35240;DHT22;21376;50.954;4.716;2022-12-18T10:26:17;-0.50;99.90
35240;DHT22;21376;50.954;4.716;2022-12-18T10:28:43;-0.70;99.90
35240;DHT22;21376;50.954;4.716;2022-12-18T10:31:14;-0.70;99.90
35240;DHT22;21376;50.954;4.716;2022-12-18T10:33:45;-0.80;99.90
35240;DHT22;21376;50.954;4.716;2022-12-18T10:36:14;-0.70;99.90
35240;DHT22;21376;50.954;4.716;2022-12-18T10:38:42;-1.10;99.90
35240;DHT22;21376;50.954;4.716;2022-12-18T10:46:20;-1.10;99.90
35240;DHT22;21376;50.954;4.716;2022-12-18T10:54:12;-0.70;99.90
35240;DHT22;21376;50.954;4.716;2022-12-18T10:56:41;-0.40;99.90
35240;DHT22;21376;50.954;4.716;2022-12-18T10:59:08;-0.30;99.90
35240;DHT22;21376;50.954;4.716;2022-12-18T11:06:59;-0.20;99.90
35240;DHT22;21376;50.954;4.716;2022-12-18T11:09:30;0.00;99.90
35240;DHT22;21376;50.954;4.716;2022-12-18T11:12:00;0.20;99.90
35240;DHT22;21376;50.954;4.716;2022-12-18T11:17:16;0.60;99.90
35240;DHT22;21376;50.954;4.716;2022-12-18T11:22:31;0.80;99.90
35240;DHT22;21376;50.954;4.716;2022-12-18T11:27:39;0.80;99.90
35240;DHT22;21376;50.954;4.716;2022-12-18T11:30:13;0.90;99.90
35240;DHT22;21376;50.954;4.716;2022-12-18T11:32:53;0.80;99.90
35240;DHT22;21376;50.954;4.716;2022-12-18T11:35:20;0.90;99.90
35240;DHT22;21376;50.954;4.716;2022-12-18T11:37:50;1.00;99.90
35240;DHT22;21376;50.954;4.716;2022-12-18T11:40:27;1.00;99.90
35240;DHT22;21376;50.954;4.716;2022-12-18T11:45:54;1.20;99.90
35240;DHT22;21376;50.954;4.716;2022-12-18T11:48:34;0.80;99.90
35240;DHT22;21376;50.954;4.716;2022-12-18T11:51:03;0.90;99.90
35240;DHT22;21376;50.954;4.716;2022-12-18T11:53:30;0.60;99.90
35240;DHT22;21376;50.954;4.716;2022-12-18T12:18:02;0.40;99.90
35240;DHT22;21376;50.954;4.716;2022-12-18T12:26:06;0.80;99.90
35240;DHT22;21376;50.954;4.716;2022-12-18T12:39:20;0.90;99.90
35240;DHT22;21376;50.954;4.716;2022-12-18T12:41:56;0.60;99.90
35240;DHT22;21376;50.954;4.716;2022-12-18T12:44:51;0.90;99.90
35240;DHT22;21376;50.954;4.716;2022-12-18T12:47:20;1.20;99.90
35240;DHT22;21376;50.954;4.716;2022-12-18T12:49:49;1.30;99.90
35240;DHT22;21376;50.954;4.716;2022-12-18T12:52:39;1.00;99.90
35240;DHT22;21376;50.954;4.716;2022-12-18T12:57:39;1.10;99.90
35240;DHT22;21376;50.954;4.716;2022-12-18T13:05:29;1.70;99.90
35240;DHT22;21376;50.954;4.716;2022-12-18T13:07:59;1.60;99.90
35240;DHT22;21376;50.954;4.716;2022-12-18T13:13:04;0.80;99.90
35240;DHT22;21376;50.954;4.716;2022-12-18T13:15:44;0.80;99.90
35240;DHT22;21376;50.954;4.716;2022-12-18T13:24:21;1.50;99.90
35240;DHT22;21376;50.954;4.716;2022-12-18T13:26:48;1.70;99.90
35240;DHT22;21376;50.954;4.716;2022-12-18T13:29:49;1.90;99.90
35240;DHT22;21376;50.954;4.716;2022-12-18T13:32:27;2.10;99.90
35240;DHT22;21376;50.954;4.716;2022-12-18T13:46:51;2.50;99.90
35240;DHT22;21376;50.954;4.716;2022-12-18T13:55:01;2.20;99.90
35240;DHT22;21376;50.954;4.716;2022-12-18T13:57:34;2.10;99.90
35240;DHT22;21376;50.954;4.716;2022-12-18T14:03:01;1.90;99.90
35240;DHT22;21376;50.954;4.716;2022-12-18T14:05:31;2.00;99.90
35240;DHT22;21376;50.954;4.716;2022-12-18T14:08:01;1.90;99.90
35240;DHT22;21376;50.954;4.716;2022-12-18T14:10:29;1.60;99.90
35240;DHT22;21376;50.954;4.716;2022-12-18T14:13:02;1.50;99.90
35240;DHT22;21376;50.954;4.716;2022-12-18T14:23:46;1.60;99.90
35240;DHT22;21376;50.954;4.716;2022-12-18T14:34:35;1.60;99.90
35240;DHT22;21376;50.954;4.716;2022-12-18T14:39:55;1.40;99.90
35240;DHT22;21376;50.954;4.716;2022-12-18T14:42:22;1.20;99.90
35240;DHT22;21376;50.954;4.716;2022-12-18T14:44:51;1.60;99.90
35240;DHT22;21376;50.954;4.716;2022-12-18T14:47:20;1.60;99.90
35240;DHT22;21376;50.954;4.716;2022-12-18T14:49:50;1.60;99.90
35240;DHT22;21376;50.954;4.716;2022-12-18T14:52:23;1.50;99.90
35240;DHT22;21376;50.954;4.716;2022-12-18T14:54:54;1.70;99.90
35240;DHT22;21376;50.954;4.716;2022-12-18T15:00:30;1.80;99.90
35240;DHT22;21376;50.954;4.716;2022-12-18T15:02:57;1.50;99.90
35240;DHT22;21376;50.954;4.716;2022-12-18T15:06:14;1.50;99.90
35240;DHT22;21376;50.954;4.716;2022-12-18T15:08:41;1.30;99.90
35240;DHT22;21376;50.954;4.716;2022-12-18T15:14:24;1.40;99.90
35240;DHT22;21376;50.954;4.716;2022-12-18T15:19:32;1.30;99.90
35240;DHT22;21376;50.954;4.716;2022-12-18T15:22:02;1.00;99.90
35240;DHT22;21376;50.954;4.716;2022-12-18T15:24:30;0.80;99.90
35240;DHT22;21376;50.954;4.716;2022-12-18T15:26:57;0.90;99.90
35240;DHT22;21376;50.954;4.716;2022-12-18T15:29:23;0.80;99.90
35240;DHT22;21376;50.954;4.716;2022-12-18T15:32:05;0.90;99.90
35240;DHT22;21376;50.954;4.716;2022-12-18T15:35:01;0.80;99.90
35240;DHT22;21376;50.954;4.716;2022-12-18T15:39:56;0.70;99.90
35240;DHT22;21376;50.954;4.716;2022-12-18T15:42:21;0.70;99.90
35240;DHT22;21376;50.954;4.716;2022-12-18T15:47:39;0.90;99.90
35240;DHT22;21376;50.954;4.716;2022-12-18T15:50:05;1.10;99.90
35240;DHT22;21376;50.954;4.716;2022-12-18T15:52:34;1.20;99.90
35240;DHT22;21376;50.954;4.716;2022-12-18T16:00:23;0.80;99.90
35240;DHT22;21376;50.954;4.716;2022-12-18T16:02:52;0.70;99.90
35240;DHT22;21376;50.954;4.716;2022-12-18T16:10:27;1.00;99.90
35240;DHT22;21376;50.954;4.716;2022-12-18T16:12:55;1.00;99.90
35240;DHT22;21376;50.954;4.716;2022-12-18T16:15:24;0.80;99.90
35240;DHT22;21376;50.954;4.716;2022-12-18T16:17:52;0.70;99.90
35240;DHT22;21376;50.954;4.716;2022-12-18T16:20:21;0.80;99.90
35240;DHT22;21376;50.954;4.716;2022-12-18T16:22:48;0.90;99.90
35240;DHT22;21376;50.954;4.716;2022-12-18T16:25:22;0.90;99.90
35240;DHT22;21376;50.954;4.716;2022-12-18T16:27:51;1.10;99.90
35240;DHT22;21376;50.954;4.716;2022-12-18T16:35:25;1.40;99.90
35240;DHT22;21376;50.954;4.716;2022-12-18T16:38:01;1.50;99.90
35240;DHT22;21376;50.954;4.716;2022-12-18T16:40:30;1.60;99.90
35240;DHT22;21376;50.954;4.716;2022-12-18T16:42:56;1.60;99.90
35240;DHT22;21376;50.954;4.716;2022-12-18T16:48:16;1.30;99.90
35240;DHT22;21376;50.954;4.716;2022-12-18T16:50:45;1.20;99.90
35240;DHT22;21376;50.954;4.716;2022-12-18T16:53:12;1.10;99.90
35240;DHT22;21376;50.954;4.716;2022-12-18T16:58:10;1.20;99.90
35240;DHT22;21376;50.954;4.716;2022-12-18T17:03:09;1.10;99.90
35240;DHT22;21376;50.954;4.716;2022-12-18T17:05:41;1.30;99.90
35240;DHT22;21376;50.954;4.716;2022-12-18T17:08:13;1.30;99.90
35240;DHT22;21376;50.954;4.716;2022-12-18T17:13:17;1.30;99.90
35240;DHT22;21376;50.954;4.716;2022-12-18T17:15:49;1.30;99.90
35240;DHT22;21376;50.954;4.716;2022-12-18T17:18:15;1.50;99.90
35240;DHT22;21376;50.954;4.716;2022-12-18T17:20:43;1.60;99.90
35240;DHT22;21376;50.954;4.716;2022-12-18T17:23:10;1.30;99.90
35240;DHT22;21376;50.954;4.716;2022-12-18T17:28:05;1.50;99.90
35240;DHT22;21376;50.954;4.716;2022-12-18T17:33:00;1.40;99.90
35240;DHT22;21376;50.954;4.716;2022-12-18T17:35:26;1.40;99.90
35240;DHT22;21376;50.954;4.716;2022-12-18T17:37:52;1.30;99.90
35240;DHT22;21376;50.954;4.716;2022-12-18T17:43:05;1.30;99.90
35240;DHT22;21376;50.954;4.716;2022-12-18T17:45:42;1.40;99.90
35240;DHT22;21376;50.954;4.716;2022-12-18T17:48:11;1.30;99.90
35240;DHT22;21376;50.954;4.716;2022-12-18T17:50:39;1.30;99.90
35240;DHT22;21376;50.954;4.716;2022-12-18T17:53:06;1.10;99.90
35240;DHT22;21376;50.954;4.716;2022-12-18T17:55:32;1.20;99.90
35240;DHT22;21376;50.954;4.716;2022-12-18T17:57:59;1.10;99.90
35240;DHT22;21376;50.954;4.716;2022-12-18T18:00:26;1.10;99.90
35240;DHT22;21376;50.954;4.716;2022-12-18T18:02:55;1.10;99.90
35240;DHT22;21376;50.954;4.716;2022-12-18T18:05:22;1.00;99.90
35240;DHT22;21376;50.954;4.716;2022-12-18T18:07:50;1.00;99.90
35240;DHT22;21376;50.954;4.716;2022-12-18T18:10:25;1.00;99.90
35240;DHT22;21376;50.954;4.716;2022-12-18T18:12:51;0.90;99.90
35240;DHT22;21376;50.954;4.716;2022-12-18T18:18:23;1.10;99.90
35240;DHT22;21376;50.954;4.716;2022-12-18T18:20:52;1.10;99.90
35240;DHT22;21376;50.954;4.716;2022-12-18T18:25:50;0.80;99.90
35240;DHT22;21376;50.954;4.716;2022-12-18T18:28:16;0.80;99.90
35240;DHT22;21376;50.954;4.716;2022-12-18T18:30:48;0.80;99.90
35240;DHT22;21376;50.954;4.716;2022-12-18T18:38:52;0.60;99.90
35240;DHT22;21376;50.954;4.716;2022-12-18T18:41:20;0.60;99.90
35240;DHT22;21376;50.954;4.716;2022-12-18T18:43:52;0.60;99.90
35240;DHT22;21376;50.954;4.716;2022-12-18T18:48:50;0.60;99.90
35240;DHT22;21376;50.954;4.716;2022-12-18T18:51:21;0.60;99.90
35240;DHT22;21376;50.954;4.716;2022-12-18T18:53:56;0.60;99.90
35240;DHT22;21376;50.954;4.716;2022-12-18T18:56:22;0.60;99.90
35240;DHT22;21376;50.954;4.716;2022-12-18T19:04:16;0.80;99.90
35240;DHT22;21376;50.954;4.716;2022-12-18T19:06:43;0.80;99.90
35240;DHT22;21376;50.954;4.716;2022-12-18T19:09:11;0.80;99.90
35240;DHT22;21376;50.954;4.716;2022-12-18T19:11:40;0.70;99.90
35240;DHT22;21376;50.954;4.716;2022-12-18T19:14:34;0.90;99.90
35240;DHT22;21376;50.954;4.716;2022-12-18T19:17:00;1.00;99.90
35240;DHT22;21376;50.954;4.716;2022-12-18T19:30:05;1.20;99.90
35240;DHT22;21376;50.954;4.716;2022-12-18T19:32:34;1.50;99.90
35240;DHT22;21376;50.954;4.716;2022-12-18T19:37:33;1.50;99.90
35240;DHT22;21376;50.954;4.716;2022-12-18T19:40:04;1.50;99.90
35240;DHT22;21376;50.954;4.716;2022-12-18T19:45:32;1.60;99.90
35240;DHT22;21376;50.954;4.716;2022-12-18T19:48:06;1.40;99.90
35240;DHT22;21376;50.954;4.716;2022-12-18T19:50:33;1.50;99.90
35240;DHT22;21376;50.954;4.716;2022-12-18T19:52:59;1.80;99.90
35240;DHT22;21376;50.954;4.716;2022-12-18T19:55:28;1.80;99.90
35240;DHT22;21376;50.954;4.716;2022-12-18T20:00:26;1.80;99.90
35240;DHT22;21376;50.954;4.716;2022-12-18T20:05:38;2.00;99.90
35240;DHT22;21376;50.954;4.716;2022-12-18T20:08:09;2.00;99.90
35240;DHT22;21376;50.954;4.716;2022-12-18T20:10:38;1.80;99.90
35240;DHT22;21376;50.954;4.716;2022-12-18T20:13:05;1.80;99.90
35240;DHT22;21376;50.954;4.716;2022-12-18T20:15:32;1.90;99.90
35240;DHT22;21376;50.954;4.716;2022-12-18T20:17:57;1.90;99.90
35240;DHT22;21376;50.954;4.716;2022-12-18T20:20:25;1.90;99.90
35240;DHT22;21376;50.954;4.716;2022-12-18T20:22:51;1.80;99.90
35240;DHT22;21376;50.954;4.716;2022-12-18T20:25:24;2.00;99.90
35240;DHT22;21376;50.954;4.716;2022-12-18T20:30:20;1.70;99.90
35240;DHT22;21376;50.954;4.716;2022-12-18T20:38:24;1.50;99.90
35240;DHT22;21376;50.954;4.716;2022-12-18T20:43:19;1.60;99.90
35240;DHT22;21376;50.954;4.716;2022-12-18T20:45:58;1.50;99.90
35240;DHT22;21376;50.954;4.716;2022-12-18T20:51:39;1.60;99.90
35240;DHT22;21376;50.954;4.716;2022-12-18T20:54:24;1.60;99.90
35240;DHT22;21376;50.954;4.716;2022-12-18T20:56:53;1.70;99.90
35240;DHT22;21376;50.954;4.716;2022-12-18T21:01:57;1.80;99.90
35240;DHT22;21376;50.954;4.716;2022-12-18T21:04:26;1.90;99.90
35240;DHT22;21376;50.954;4.716;2022-12-18T21:09:23;1.70;99.90
35240;DHT22;21376;50.954;4.716;2022-12-18T21:11:55;1.70;99.90
35240;DHT22;21376;50.954;4.716;2022-12-18T21:14:48;1.60;99.90
35240;DHT22;21376;50.954;4.716;2022-12-18T21:17:19;1.50;99.90
35240;DHT22;21376;50.954;4.716;2022-12-18T21:19:48;1.50;99.90
35240;DHT22;21376;50.954;4.716;2022-12-18T21:22:14;1.50;99.90
35240;DHT22;21376;50.954;4.716;2022-12-18T21:24:45;1.60;99.90
35240;DHT22;21376;50.954;4.716;2022-12-18T21:27:13;1.70;99.90
35240;DHT22;21376;50.954;4.716;2022-12-18T21:32:08;1.70;99.90
35240;DHT22;21376;50.954;4.716;2022-12-18T21:34:37;1.80;99.90
35240;DHT22;21376;50.954;4.716;2022-12-18T21:37:05;1.70;99.90
35240;DHT22;21376;50.954;4.716;2022-12-18T21:39:33;1.90;99.90
35240;DHT22;21376;50.954;4.716;2022-12-18T21:42:00;1.80;99.90
35240;DHT22;21376;50.954;4.716;2022-12-18T21:47:19;1.90;99.90
35240;DHT22;21376;50.954;4.716;2022-12-18T21:49:49;1.90;99.90
35240;DHT22;21376;50.954;4.716;2022-12-18T21:52:19;1.90;99.90
35240;DHT22;21376;50.954;4.716;2022-12-18T21:57:18;1.90;99.90
35240;DHT22;21376;50.954;4.716;2022-12-18T22:02:16;1.90;99.90
35240;DHT22;21376;50.954;4.716;2022-12-18T22:10:55;2.30;99.90
35240;DHT22;21376;50.954;4.716;2022-12-18T22:15:53;2.10;99.90
35240;DHT22;21376;50.954;4.716;2022-12-18T22:18:22;2.20;99.90
35240;DHT22;21376;50.954;4.716;2022-12-18T22:20:48;2.10;99.90
35240;DHT22;21376;50.954;4.716;2022-12-18T22:23:15;2.20;99.90
35240;DHT22;21376;50.954;4.716;2022-12-18T22:25:44;2.20;99.90
35240;DHT22;21376;50.954;4.716;2022-12-18T22:28:10;2.20;99.90
35240;DHT22;21376;50.954;4.716;2022-12-18T22:30:54;2.20;99.90
35240;DHT22;21376;50.954;4.716;2022-12-18T22:33:26;2.40;99.90
35240;DHT22;21376;50.954;4.716;2022-12-18T22:35:56;2.30;99.90
35240;DHT22;21376;50.954;4.716;2022-12-18T22:38:27;2.20;99.90
35240;DHT22;21376;50.954;4.716;2022-12-18T22:43:21;2.30;99.90
35240;DHT22;21376;50.954;4.716;2022-12-18T22:45:50;2.30;99.90
35240;DHT22;21376;50.954;4.716;2022-12-18T22:48:17;2.30;99.90
35240;DHT22;21376;50.954;4.716;2022-12-18T22:50:48;2.40;99.90
35240;DHT22;21376;50.954;4.716;2022-12-18T22:53:20;2.40;99.90
35240;DHT22;21376;50.954;4.716;2022-12-18T22:58:16;2.40;99.90
35240;DHT22;21376;50.954;4.716;2022-12-18T23:00:42;2.40;99.90
35240;DHT22;21376;50.954;4.716;2022-12-18T23:03:11;2.40;99.90
35240;DHT22;21376;50.954;4.716;2022-12-18T23:05:37;2.50;99.90
35240;DHT22;21376;50.954;4.716;2022-12-18T23:08:03;2.60;99.90
35240;DHT22;21376;50.954;4.716;2022-12-18T23:10:32;2.50;99.90
35240;DHT22;21376;50.954;4.716;2022-12-18T23:15:28;2.80;99.90
35240;DHT22;21376;50.954;4.716;2022-12-18T23:17:56;2.70;99.90
35240;DHT22;21376;50.954;4.716;2022-12-18T23:20:23;2.80;99.90
35240;DHT22;21376;50.954;4.716;2022-12-18T23:22:49;2.90;99.90
35240;DHT22;21376;50.954;4.716;2022-12-18T23:25:21;3.00;99.90
35240;DHT22;21376;50.954;4.716;2022-12-18T23:30:18;2.90;99.90
35240;DHT22;21376;50.954;4.716;2022-12-18T23:32:45;3.00;99.90
35240;DHT22;21376;50.954;4.716;2022-12-18T23:35:15;2.90;99.90
35240;DHT22;21376;50.954;4.716;2022-12-18T23:40:27;3.10;99.90
35240;DHT22;21376;50.954;4.716;2022-12-18T23:43:03;3.20;99.90
35240;DHT22;21376;50.954;4.716;2022-12-18T23:48:27;3.20;99.90
35240;DHT22;21376;50.954;4.716;2022-12-18T23:50:55;3.30;99.90
35240;DHT22;21376;50.954;4.716;2022-12-18T23:53:23;3.40;99.90
35240;DHT22;21376;50.954;4.716;2022-12-18T23:58:25;3.40;99.90
